sensor_id;sensor_type;location;lat;lon;timestamp;temperature;humidity
69464;DHT22;56665;41.106;16.688;2023-05-07T00:02:21;15.65;67.98
69464;DHT22;56665;41.106;16.688;2023-05-07T00:05:26;15.63;68.23
69464;DHT22;56665;41.106;16.688;2023-05-07T00:08:29;15.62;68.29
69464;DHT22;56665;41.106;16.688;2023-05-07T00:11:33;15.63;68.25
69464;DHT22;56665;41.106;16.688;2023-05-07T00:14:37;15.57;68.52
69464;DHT22;56665;41.106;16.688;2023-05-07T00:17:41;15.55;68.57
69464;DHT22;56665;41.106;16.688;2023-05-07T00:20:46;15.60;68.14
69464;DHT22;56665;41.106;16.688;2023-05-07T00:23:50;15.56;68.15
69464;DHT22;56665;41.106;16.688;2023-05-07T00:26:54;15.55;68.36
69464;DHT22;56665;41.106;16.688;2023-05-07T00:29:58;15.52;68.60
69464;DHT22;56665;41.106;16.688;2023-05-07T00:33:02;15.47;68.42
69464;DHT22;56665;41.106;16.688;2023-05-07T00:36:08;15.45;68.46
69464;DHT22;56665;41.106;16.688;2023-05-07T00:39:12;15.43;68.73
69464;DHT22;56665;41.106;16.688;2023-05-07T00:42:18;15.42;68.79
69464;DHT22;56665;41.106;16.688;2023-05-07T00:45:25;15.45;68.72
69464;DHT22;56665;41.106;16.688;2023-05-07T00:48:30;15.45;68.54
69464;DHT22;56665;41.106;16.688;2023-05-07T00:51:34;15.47;68.00
69464;DHT22;56665;41.106;16.688;2023-05-07T00:54:41;15.40;68.20
69464;DHT22;56665;41.106;16.688;2023-05-07T00:57:46;15.42;68.21
69464;DHT22;56665;41.106;16.688;2023-05-07T01:00:49;15.42;68.25
69464;DHT22;56665;41.106;16.688;2023-05-07T01:03:54;15.42;68.21
69464;DHT22;56665;41.106;16.688;2023-05-07T01:06:59;15.46;68.13
69464;DHT22;56665;41.106;16.688;2023-05-07T01:10:05;15.46;67.94
69464;DHT22;56665;41.106;16.688;2023-05-07T01:13:12;15.45;68.15
69464;DHT22;56665;41.106;16.688;2023-05-07T01:16:17;15.42;68.21
69464;DHT22;56665;41.106;16.688;2023-05-07T01:19:21;15.43;68.18
69464;DHT22;56665;41.106;16.688;2023-05-07T01:22:37;15.39;68.04
69464;DHT22;56665;41.106;16.688;2023-05-07T01:25:43;15.36;68.10
69464;DHT22;56665;41.106;16.688;2023-05-07T01:28:53;15.36;68.23
69464;DHT22;56665;41.106;16.688;2023-05-07T01:31:59;15.35;68.14
69464;DHT22;56665;41.106;16.688;2023-05-07T01:35:07;15.32;68.29
69464;DHT22;56665;41.106;16.688;2023-05-07T01:38:13;15.29;68.40
69464;DHT22;56665;41.106;16.688;2023-05-07T01:41:17;15.32;68.24
69464;DHT22;56665;41.106;16.688;2023-05-07T01:44:21;15.34;68.28
69464;DHT22;56665;41.106;16.688;2023-05-07T01:47:29;15.36;68.13
69464;DHT22;56665;41.106;16.688;2023-05-07T01:50:34;15.32;68.14
69464;DHT22;56665;41.106;16.688;2023-05-07T01:53:39;15.34;68.11
69464;DHT22;56665;41.106;16.688;2023-05-07T01:56:43;15.34;68.11
69464;DHT22;56665;41.106;16.688;2023-05-07T01:59:49;15.32;68.06
69464;DHT22;56665;41.106;16.688;2023-05-07T02:02:54;15.29;68.09
69464;DHT22;56665;41.106;16.688;2023-05-07T02:06:12;15.25;68.08
69464;DHT22;56665;41.106;16.688;2023-05-07T02:09:16;15.22;68.00
69464;DHT22;56665;41.106;16.688;2023-05-07T02:12:23;15.19;68.15
69464;DHT22;56665;41.106;16.688;2023-05-07T02:15:27;15.18;68.40
69464;DHT22;56665;41.106;16.688;2023-05-07T02:18:31;15.15;68.43
69464;DHT22;56665;41.106;16.688;2023-05-07T02:21:36;15.16;68.24
69464;DHT22;56665;41.106;16.688;2023-05-07T02:24:39;15.15;68.15
69464;DHT22;56665;41.106;16.688;2023-05-07T02:27:43;15.16;67.92
69464;DHT22;56665;41.106;16.688;2023-05-07T02:30:48;15.15;68.20
69464;DHT22;56665;41.106;16.688;2023-05-07T02:33:52;15.14;68.30
69464;DHT22;56665;41.106;16.688;2023-05-07T02:36:57;15.11;68.43
69464;DHT22;56665;41.106;16.688;2023-05-07T02:40:03;15.09;68.39
69464;DHT22;56665;41.106;16.688;2023-05-07T02:43:08;15.08;68.05
69464;DHT22;56665;41.106;16.688;2023-05-07T02:46:12;15.11;68.25
69464;DHT22;56665;41.106;16.688;2023-05-07T02:49:20;15.15;67.90
69464;DHT22;56665;41.106;16.688;2023-05-07T02:52:26;15.11;68.05
69464;DHT22;56665;41.106;16.688;2023-05-07T02:55:30;15.12;67.91
69464;DHT22;56665;41.106;16.688;2023-05-07T02:58:34;15.14;67.76
69464;DHT22;56665;41.106;16.688;2023-05-07T03:01:39;15.14;67.67
69464;DHT22;56665;41.106;16.688;2023-05-07T03:04:45;15.12;67.45
69464;DHT22;56665;41.106;16.688;2023-05-07T03:07:48;15.11;67.44
69464;DHT22;56665;41.106;16.688;2023-05-07T03:10:53;15.11;67.74
69464;DHT22;56665;41.106;16.688;2023-05-07T03:13:57;15.08;67.90
69464;DHT22;56665;41.106;16.688;2023-05-07T03:17:00;15.08;67.55
69464;DHT22;56665;41.106;16.688;2023-05-07T03:20:07;15.05;67.70
69464;DHT22;56665;41.106;16.688;2023-05-07T03:23:11;15.01;67.79
69464;DHT22;56665;41.106;16.688;2023-05-07T03:26:16;15.02;68.05
69464;DHT22;56665;41.106;16.688;2023-05-07T03:29:22;15.08;67.97
69464;DHT22;56665;41.106;16.688;2023-05-07T03:32:28;15.05;67.81
69464;DHT22;56665;41.106;16.688;2023-05-07T03:35:33;15.07;67.63
69464;DHT22;56665;41.106;16.688;2023-05-07T03:38:39;15.07;67.92
69464;DHT22;56665;41.106;16.688;2023-05-07T03:41:44;15.09;68.00
69464;DHT22;56665;41.106;16.688;2023-05-07T03:44:48;15.11;67.79
69464;DHT22;56665;41.106;16.688;2023-05-07T03:47:52;15.12;67.53
69464;DHT22;56665;41.106;16.688;2023-05-07T03:50:59;15.08;67.47
69464;DHT22;56665;41.106;16.688;2023-05-07T03:54:09;15.12;67.54
69464;DHT22;56665;41.106;16.688;2023-05-07T03:57:15;15.15;67.02
69464;DHT22;56665;41.106;16.688;2023-05-07T04:00:19;15.20;67.37
69464;DHT22;56665;41.106;16.688;2023-05-07T04:03:26;15.25;66.65
69464;DHT22;56665;41.106;16.688;2023-05-07T04:06:30;15.23;66.85
69464;DHT22;56665;41.106;16.688;2023-05-07T04:09:35;15.25;66.68
69464;DHT22;56665;41.106;16.688;2023-05-07T04:12:42;15.28;66.95
69464;DHT22;56665;41.106;16.688;2023-05-07T04:15:47;15.28;67.21
69464;DHT22;56665;41.106;16.688;2023-05-07T04:18:54;15.35;67.09
69464;DHT22;56665;41.106;16.688;2023-05-07T04:21:58;15.38;66.94
69464;DHT22;56665;41.106;16.688;2023-05-07T04:25:03;15.40;66.78
69464;DHT22;56665;41.106;16.688;2023-05-07T04:28:07;15.46;66.83
69464;DHT22;56665;41.106;16.688;2023-05-07T04:31:11;15.47;66.95
69464;DHT22;56665;41.106;16.688;2023-05-07T04:34:19;15.52;67.37
69464;DHT22;56665;41.106;16.688;2023-05-07T04:37:23;15.60;67.34
69464;DHT22;56665;41.106;16.688;2023-05-07T04:40:26;15.76;67.20
69464;DHT22;56665;41.106;16.688;2023-05-07T04:43:32;15.90;66.78
69464;DHT22;56665;41.106;16.688;2023-05-07T04:46:37;16.11;66.55
69464;DHT22;56665;41.106;16.688;2023-05-07T04:49:44;16.37;65.62
69464;DHT22;56665;41.106;16.688;2023-05-07T04:52:50;16.62;64.81
69464;DHT22;56665;41.106;16.688;2023-05-07T04:55:56;16.83;64.57
69464;DHT22;56665;41.106;16.688;2023-05-07T04:59:09;17.10;63.89
69464;DHT22;56665;41.106;16.688;2023-05-07T05:02:14;17.35;63.25
69464;DHT22;56665;41.106;16.688;2023-05-07T05:05:18;17.57;62.83
69464;DHT22;56665;41.106;16.688;2023-05-07T05:08:26;17.79;62.07
69464;DHT22;56665;41.106;16.688;2023-05-07T05:11:31;18.07;61.17
69464;DHT22;56665;41.106;16.688;2023-05-07T05:14:35;18.24;60.78
69464;DHT22;56665;41.106;16.688;2023-05-07T05:17:39;18.46;60.20
69464;DHT22;56665;41.106;16.688;2023-05-07T05:20:44;18.61;59.83
69464;DHT22;56665;41.106;16.688;2023-05-07T05:23:48;18.74;59.42
69464;DHT22;56665;41.106;16.688;2023-05-07T05:26:56;18.95;59.03
69464;DHT22;56665;41.106;16.688;2023-05-07T05:30:03;19.25;58.48
69464;DHT22;56665;41.106;16.688;2023-05-07T05:33:08;19.51;58.16
69464;DHT22;56665;41.106;16.688;2023-05-07T05:36:13;19.81;57.63
69464;DHT22;56665;41.106;16.688;2023-05-07T05:39:20;20.09;57.16
69464;DHT22;56665;41.106;16.688;2023-05-07T05:42:25;20.39;56.40
69464;DHT22;56665;41.106;16.688;2023-05-07T05:45:29;20.57;56.14
69464;DHT22;56665;41.106;16.688;2023-05-07T05:48:33;20.83;55.75
69464;DHT22;56665;41.106;16.688;2023-05-07T05:51:39;21.06;55.30
69464;DHT22;56665;41.106;16.688;2023-05-07T05:54:44;21.34;54.64
69464;DHT22;56665;41.106;16.688;2023-05-07T05:57:48;21.69;53.88
69464;DHT22;56665;41.106;16.688;2023-05-07T06:00:52;22.10;52.36
69464;DHT22;56665;41.106;16.688;2023-05-07T06:03:59;22.18;50.59
69464;DHT22;56665;41.106;16.688;2023-05-07T06:07:02;22.61;49.81
69464;DHT22;56665;41.106;16.688;2023-05-07T06:10:06;23.03;48.70
69464;DHT22;56665;41.106;16.688;2023-05-07T06:13:12;23.30;47.38
69464;DHT22;56665;41.106;16.688;2023-05-07T06:16:16;23.64;47.02
69464;DHT22;56665;41.106;16.688;2023-05-07T06:19:22;23.95;46.93
69464;DHT22;56665;41.106;16.688;2023-05-07T06:22:28;24.06;46.85
69464;DHT22;56665;41.106;16.688;2023-05-07T06:25:32;24.42;45.70
69464;DHT22;56665;41.106;16.688;2023-05-07T06:28:36;24.64;45.09
69464;DHT22;56665;41.106;16.688;2023-05-07T06:31:41;24.83;44.90
69464;DHT22;56665;41.106;16.688;2023-05-07T06:34:46;24.72;44.87
69464;DHT22;56665;41.106;16.688;2023-05-07T06:37:51;25.11;44.79
69464;DHT22;56665;41.106;16.688;2023-05-07T06:41:00;25.38;44.09
69464;DHT22;56665;41.106;16.688;2023-05-07T06:44:04;25.66;44.21
69464;DHT22;56665;41.106;16.688;2023-05-07T06:47:16;25.97;43.17
69464;DHT22;56665;41.106;16.688;2023-05-07T06:50:21;26.06;42.63
69464;DHT22;56665;41.106;16.688;2023-05-07T06:53:26;26.36;42.25
69464;DHT22;56665;41.106;16.688;2023-05-07T06:56:32;26.19;42.80
69464;DHT22;56665;41.106;16.688;2023-05-07T06:59:37;26.29;42.81
69464;DHT22;56665;41.106;16.688;2023-05-07T07:02:41;26.31;43.59
69464;DHT22;56665;41.106;16.688;2023-05-07T07:05:46;26.69;43.18
69464;DHT22;56665;41.106;16.688;2023-05-07T07:08:51;26.45;43.48
69464;DHT22;56665;41.106;16.688;2023-05-07T07:11:55;26.91;43.57
69464;DHT22;56665;41.106;16.688;2023-05-07T07:15:00;27.13;42.98
69464;DHT22;56665;41.106;16.688;2023-05-07T07:18:04;26.55;44.81
69464;DHT22;56665;41.106;16.688;2023-05-07T07:21:09;26.61;44.73
69464;DHT22;56665;41.106;16.688;2023-05-07T07:24:14;27.05;44.50
69464;DHT22;56665;41.106;16.688;2023-05-07T07:27:23;26.82;44.99
69464;DHT22;56665;41.106;16.688;2023-05-07T07:30:28;27.19;44.56
69464;DHT22;56665;41.106;16.688;2023-05-07T07:33:32;26.98;45.56
69464;DHT22;56665;41.106;16.688;2023-05-07T07:36:37;28.38;42.96
69464;DHT22;56665;41.106;16.688;2023-05-07T07:39:42;29.78;40.75
69464;DHT22;56665;41.106;16.688;2023-05-07T07:42:46;31.00;38.89
69464;DHT22;56665;41.106;16.688;2023-05-07T07:45:55;33.40;35.21
69464;DHT22;56665;41.106;16.688;2023-05-07T07:48:59;34.73;33.16
69464;DHT22;56665;41.106;16.688;2023-05-07T07:52:05;33.02;34.57
69464;DHT22;56665;41.106;16.688;2023-05-07T07:55:13;34.12;32.85
69464;DHT22;56665;41.106;16.688;2023-05-07T07:58:18;33.14;32.49
69464;DHT22;56665;41.106;16.688;2023-05-07T08:01:24;34.18;32.30
69464;DHT22;56665;41.106;16.688;2023-05-07T08:04:28;33.16;33.26
69464;DHT22;56665;41.106;16.688;2023-05-07T08:07:33;32.46;34.84
69464;DHT22;56665;41.106;16.688;2023-05-07T08:10:40;30.69;37.89
69464;DHT22;56665;41.106;16.688;2023-05-07T08:13:55;32.65;35.88
69464;DHT22;56665;41.106;16.688;2023-05-07T08:17:01;30.91;36.10
69464;DHT22;56665;41.106;16.688;2023-05-07T08:20:05;30.67;37.06
69464;DHT22;56665;41.106;16.688;2023-05-07T08:23:11;30.68;36.89
69464;DHT22;56665;41.106;16.688;2023-05-07T08:26:21;30.61;36.59
69464;DHT22;56665;41.106;16.688;2023-05-07T08:29:24;31.27;35.70
69464;DHT22;56665;41.106;16.688;2023-05-07T08:32:29;31.19;35.54
69464;DHT22;56665;41.106;16.688;2023-05-07T08:35:33;29.98;36.72
69464;DHT22;56665;41.106;16.688;2023-05-07T08:38:37;31.59;35.51
69464;DHT22;56665;41.106;16.688;2023-05-07T08:41:44;30.72;35.21
69464;DHT22;56665;41.106;16.688;2023-05-07T08:44:56;29.66;36.35
69464;DHT22;56665;41.106;16.688;2023-05-07T08:48:05;30.05;36.24
69464;DHT22;56665;41.106;16.688;2023-05-07T08:51:16;30.28;35.60
69464;DHT22;56665;41.106;16.688;2023-05-07T08:54:21;30.16;35.79
69464;DHT22;56665;41.106;16.688;2023-05-07T08:57:25;30.20;35.94
69464;DHT22;56665;41.106;16.688;2023-05-07T09:00:31;31.04;35.33
69464;DHT22;56665;41.106;16.688;2023-05-07T09:03:38;31.72;34.59
69464;DHT22;56665;41.106;16.688;2023-05-07T09:06:43;31.29;35.36
69464;DHT22;56665;41.106;16.688;2023-05-07T09:09:49;30.46;36.75
69464;DHT22;56665;41.106;16.688;2023-05-07T09:12:53;29.12;39.12
69464;DHT22;56665;41.106;16.688;2023-05-07T09:15:58;30.74;37.74
69464;DHT22;56665;41.106;16.688;2023-05-07T09:19:03;31.69;36.41
69464;DHT22;56665;41.106;16.688;2023-05-07T09:22:07;30.88;37.75
69464;DHT22;56665;41.106;16.688;2023-05-07T09:25:30;30.68;38.65
69464;DHT22;56665;41.106;16.688;2023-05-07T09:28:38;29.85;39.08
69464;DHT22;56665;41.106;16.688;2023-05-07T09:31:42;29.73;39.25
69464;DHT22;56665;41.106;16.688;2023-05-07T09:34:50;29.21;40.71
69464;DHT22;56665;41.106;16.688;2023-05-07T09:38:00;30.21;39.60
69464;DHT22;56665;41.106;16.688;2023-05-07T09:44:15;30.21;38.41
69464;DHT22;56665;41.106;16.688;2023-05-07T09:47:24;29.45;38.85
69464;DHT22;56665;41.106;16.688;2023-05-07T09:50:51;29.89;37.90
69464;DHT22;56665;41.106;16.688;2023-05-07T09:54:02;30.00;38.08
69464;DHT22;56665;41.106;16.688;2023-05-07T09:57:11;30.50;37.08
69464;DHT22;56665;41.106;16.688;2023-05-07T10:00:18;30.03;37.38
69464;DHT22;56665;41.106;16.688;2023-05-07T10:03:27;29.68;38.12
69464;DHT22;56665;41.106;16.688;2023-05-07T10:06:38;30.24;37.03
69464;DHT22;56665;41.106;16.688;2023-05-07T10:09:44;30.10;36.58
69464;DHT22;56665;41.106;16.688;2023-05-07T10:12:59;28.72;39.07
69464;DHT22;56665;41.106;16.688;2023-05-07T10:16:11;29.15;37.75
69464;DHT22;56665;41.106;16.688;2023-05-07T10:19:23;29.30;37.84
69464;DHT22;56665;41.106;16.688;2023-05-07T10:22:50;28.48;40.66
69464;DHT22;56665;41.106;16.688;2023-05-07T10:26:03;28.90;38.77
69464;DHT22;56665;41.106;16.688;2023-05-07T10:32:40;29.10;38.05
69464;DHT22;56665;41.106;16.688;2023-05-07T10:35:51;28.72;38.24
69464;DHT22;56665;41.106;16.688;2023-05-07T10:38:59;28.97;37.41
69464;DHT22;56665;41.106;16.688;2023-05-07T10:42:11;29.01;37.61
69464;DHT22;56665;41.106;16.688;2023-05-07T10:45:17;29.31;37.01
69464;DHT22;56665;41.106;16.688;2023-05-07T10:48:25;28.08;38.28
69464;DHT22;56665;41.106;16.688;2023-05-07T10:51:34;28.07;39.09
69464;DHT22;56665;41.106;16.688;2023-05-07T10:54:47;28.56;38.51
69464;DHT22;56665;41.106;16.688;2023-05-07T10:57:52;28.40;38.54
69464;DHT22;56665;41.106;16.688;2023-05-07T11:01:03;29.06;38.84
69464;DHT22;56665;41.106;16.688;2023-05-07T11:04:16;29.82;37.24
69464;DHT22;56665;41.106;16.688;2023-05-07T11:08:04;29.90;34.20
69464;DHT22;56665;41.106;16.688;2023-05-07T11:11:16;30.31;34.85
69464;DHT22;56665;41.106;16.688;2023-05-07T11:17:59;30.03;36.04
69464;DHT22;56665;41.106;16.688;2023-05-07T11:21:07;29.52;37.11
69464;DHT22;56665;41.106;16.688;2023-05-07T11:24:25;29.15;35.55
69464;DHT22;56665;41.106;16.688;2023-05-07T11:27:41;29.00;37.10
69464;DHT22;56665;41.106;16.688;2023-05-07T11:30:46;28.25;39.03
69464;DHT22;56665;41.106;16.688;2023-05-07T11:33:55;27.61;39.41
69464;DHT22;56665;41.106;16.688;2023-05-07T11:37:01;27.46;38.76
69464;DHT22;56665;41.106;16.688;2023-05-07T11:40:26;27.81;38.71
69464;DHT22;56665;41.106;16.688;2023-05-07T11:43:31;28.15;36.55
69464;DHT22;56665;41.106;16.688;2023-05-07T11:46:35;28.00;37.42
69464;DHT22;56665;41.106;16.688;2023-05-07T11:49:40;27.85;35.96
69464;DHT22;56665;41.106;16.688;2023-05-07T11:52:50;27.46;35.92
69464;DHT22;56665;41.106;16.688;2023-05-07T11:55:55;27.13;34.75
69464;DHT22;56665;41.106;16.688;2023-05-07T11:59:00;26.75;36.37
69464;DHT22;56665;41.106;16.688;2023-05-07T12:02:05;27.54;36.31
69464;DHT22;56665;41.106;16.688;2023-05-07T12:05:09;27.81;36.15
69464;DHT22;56665;41.106;16.688;2023-05-07T12:08:17;26.48;39.19
69464;DHT22;56665;41.106;16.688;2023-05-07T12:11:22;26.61;39.15
69464;DHT22;56665;41.106;16.688;2023-05-07T12:14:29;26.94;39.05
69464;DHT22;56665;41.106;16.688;2023-05-07T12:17:33;27.06;39.28
69464;DHT22;56665;41.106;16.688;2023-05-07T12:20:40;27.61;38.22
69464;DHT22;56665;41.106;16.688;2023-05-07T12:23:43;27.71;35.94
69464;DHT22;56665;41.106;16.688;2023-05-07T12:26:48;27.06;36.09
69464;DHT22;56665;41.106;16.688;2023-05-07T12:29:53;27.43;34.73
69464;DHT22;56665;41.106;16.688;2023-05-07T12:32:58;27.11;33.50
69464;DHT22;56665;41.106;16.688;2023-05-07T12:36:07;26.64;34.96
69464;DHT22;56665;41.106;16.688;2023-05-07T12:39:11;27.03;34.57
69464;DHT22;56665;41.106;16.688;2023-05-07T12:42:16;27.15;35.42
69464;DHT22;56665;41.106;16.688;2023-05-07T12:45:25;27.18;34.89
69464;DHT22;56665;41.106;16.688;2023-05-07T12:48:30;27.23;32.75
69464;DHT22;56665;41.106;16.688;2023-05-07T12:51:35;26.85;35.45
69464;DHT22;56665;41.106;16.688;2023-05-07T12:54:41;26.78;35.21
69464;DHT22;56665;41.106;16.688;2023-05-07T12:57:48;27.08;35.33
69464;DHT22;56665;41.106;16.688;2023-05-07T13:00:52;26.96;35.64
69464;DHT22;56665;41.106;16.688;2023-05-07T13:04:00;27.40;34.88
69464;DHT22;56665;41.106;16.688;2023-05-07T13:07:05;27.98;35.14
69464;DHT22;56665;41.106;16.688;2023-05-07T13:10:09;27.66;36.00
69464;DHT22;56665;41.106;16.688;2023-05-07T13:13:14;27.19;35.42
69464;DHT22;56665;41.106;16.688;2023-05-07T13:16:19;27.30;35.07
69464;DHT22;56665;41.106;16.688;2023-05-07T13:19:24;27.36;35.90
69464;DHT22;56665;41.106;16.688;2023-05-07T13:22:31;27.85;34.82
69464;DHT22;56665;41.106;16.688;2023-05-07T13:25:35;27.78;33.97
69464;DHT22;56665;41.106;16.688;2023-05-07T13:28:39;28.02;32.80
69464;DHT22;56665;41.106;16.688;2023-05-07T13:31:44;27.78;33.68
69464;DHT22;56665;41.106;16.688;2023-05-07T13:34:48;27.74;34.33
69464;DHT22;56665;41.106;16.688;2023-05-07T13:37:53;27.42;35.35
69464;DHT22;56665;41.106;16.688;2023-05-07T13:40:58;27.95;34.47
69464;DHT22;56665;41.106;16.688;2023-05-07T13:44:02;28.28;33.39
69464;DHT22;56665;41.106;16.688;2023-05-07T13:47:06;28.17;34.75
69464;DHT22;56665;41.106;16.688;2023-05-07T13:50:10;28.19;35.21
69464;DHT22;56665;41.106;16.688;2023-05-07T13:53:18;27.22;36.65
69464;DHT22;56665;41.106;16.688;2023-05-07T13:56:22;27.19;37.06
69464;DHT22;56665;41.106;16.688;2023-05-07T13:59:27;26.99;36.31
69464;DHT22;56665;41.106;16.688;2023-05-07T14:02:31;27.05;34.30
69464;DHT22;56665;41.106;16.688;2023-05-07T14:05:35;27.15;35.24
69464;DHT22;56665;41.106;16.688;2023-05-07T14:08:39;27.71;34.48
69464;DHT22;56665;41.106;16.688;2023-05-07T14:11:43;27.77;35.85
69464;DHT22;56665;41.106;16.688;2023-05-07T14:14:49;27.23;35.95
69464;DHT22;56665;41.106;16.688;2023-05-07T14:17:53;26.80;36.61
69464;DHT22;56665;41.106;16.688;2023-05-07T14:20:56;26.71;37.89
69464;DHT22;56665;41.106;16.688;2023-05-07T14:24:00;27.16;36.91
69464;DHT22;56665;41.106;16.688;2023-05-07T14:27:05;26.92;37.27
69464;DHT22;56665;41.106;16.688;2023-05-07T14:30:09;26.29;38.66
69464;DHT22;56665;41.106;16.688;2023-05-07T14:33:14;26.37;39.39
69464;DHT22;56665;41.106;16.688;2023-05-07T14:36:19;26.31;39.62
69464;DHT22;56665;41.106;16.688;2023-05-07T14:39:30;25.72;41.04
69464;DHT22;56665;41.106;16.688;2023-05-07T14:42:33;25.75;41.09
69464;DHT22;56665;41.106;16.688;2023-05-07T14:45:37;25.90;40.56
69464;DHT22;56665;41.106;16.688;2023-05-07T14:48:43;26.36;39.55
69464;DHT22;56665;41.106;16.688;2023-05-07T14:51:49;26.55;38.97
69464;DHT22;56665;41.106;16.688;2023-05-07T14:54:54;26.72;38.07
69464;DHT22;56665;41.106;16.688;2023-05-07T14:57:58;26.54;38.03
69464;DHT22;56665;41.106;16.688;2023-05-07T15:01:02;26.24;39.06
69464;DHT22;56665;41.106;16.688;2023-05-07T15:04:06;26.19;39.10
69464;DHT22;56665;41.106;16.688;2023-05-07T15:07:10;25.92;40.17
69464;DHT22;56665;41.106;16.688;2023-05-07T15:10:14;25.83;40.80
69464;DHT22;56665;41.106;16.688;2023-05-07T15:13:19;25.61;41.12
69464;DHT22;56665;41.106;16.688;2023-05-07T15:16:22;25.51;41.93
69464;DHT22;56665;41.106;16.688;2023-05-07T15:19:27;25.28;42.94
69464;DHT22;56665;41.106;16.688;2023-05-07T15:22:35;24.67;45.11
69464;DHT22;56665;41.106;16.688;2023-05-07T15:25:40;24.82;45.55
69464;DHT22;56665;41.106;16.688;2023-05-07T15:28:44;24.96;45.50
69464;DHT22;56665;41.106;16.688;2023-05-07T15:31:47;25.04;45.60
69464;DHT22;56665;41.106;16.688;2023-05-07T15:34:51;24.96;45.80
69464;DHT22;56665;41.106;16.688;2023-05-07T15:37:57;24.99;45.75
69464;DHT22;56665;41.106;16.688;2023-05-07T15:41:01;24.69;46.08
69464;DHT22;56665;41.106;16.688;2023-05-07T15:44:04;24.64;46.23
69464;DHT22;56665;41.106;16.688;2023-05-07T15:47:08;24.33;46.72
69464;DHT22;56665;41.106;16.688;2023-05-07T15:50:12;24.23;47.06
69464;DHT22;56665;41.106;16.688;2023-05-07T15:53:17;24.21;47.44
69464;DHT22;56665;41.106;16.688;2023-05-07T15:56:23;24.23;47.64
69464;DHT22;56665;41.106;16.688;2023-05-07T15:59:28;24.31;48.07
69464;DHT22;56665;41.106;16.688;2023-05-07T16:02:32;24.35;48.04
69464;DHT22;56665;41.106;16.688;2023-05-07T16:05:36;24.39;48.58
69464;DHT22;56665;41.106;16.688;2023-05-07T16:08:40;24.38;49.16
69464;DHT22;56665;41.106;16.688;2023-05-07T16:11:44;24.26;49.59
69464;DHT22;56665;41.106;16.688;2023-05-07T16:14:49;24.18;49.81
69464;DHT22;56665;41.106;16.688;2023-05-07T16:17:54;24.18;49.91
69464;DHT22;56665;41.106;16.688;2023-05-07T16:21:02;24.18;50.06
69464;DHT22;56665;41.106;16.688;2023-05-07T16:24:06;24.16;49.02
69464;DHT22;56665;41.106;16.688;2023-05-07T16:27:10;24.21;48.59
69464;DHT22;56665;41.106;16.688;2023-05-07T16:30:15;24.21;48.08
69464;DHT22;56665;41.106;16.688;2023-05-07T16:33:20;24.19;47.44
69464;DHT22;56665;41.106;16.688;2023-05-07T16:36:28;24.19;47.35
69464;DHT22;56665;41.106;16.688;2023-05-07T16:39:32;24.14;47.58
69464;DHT22;56665;41.106;16.688;2023-05-07T16:42:36;24.09;47.32
69464;DHT22;56665;41.106;16.688;2023-05-07T16:45:40;24.04;47.50
69464;DHT22;56665;41.106;16.688;2023-05-07T16:48:44;23.98;47.93
69464;DHT22;56665;41.106;16.688;2023-05-07T16:51:48;23.93;47.62
69464;DHT22;56665;41.106;16.688;2023-05-07T16:54:51;23.85;47.90
69464;DHT22;56665;41.106;16.688;2023-05-07T16:58:00;23.81;48.17
69464;DHT22;56665;41.106;16.688;2023-05-07T17:01:04;23.74;48.44
69464;DHT22;56665;41.106;16.688;2023-05-07T17:04:09;23.71;48.13
69464;DHT22;56665;41.106;16.688;2023-05-07T17:07:13;23.65;48.14
69464;DHT22;56665;41.106;16.688;2023-05-07T17:10:18;23.61;47.86
69464;DHT22;56665;41.106;16.688;2023-05-07T17:13:23;23.55;47.72
69464;DHT22;56665;41.106;16.688;2023-05-07T17:16:28;23.47;47.75
69464;DHT22;56665;41.106;16.688;2023-05-07T17:19:32;23.42;47.71
69464;DHT22;56665;41.106;16.688;2023-05-07T17:22:37;23.34;47.93
69464;DHT22;56665;41.106;16.688;2023-05-07T17:25:40;23.26;48.26
69464;DHT22;56665;41.106;16.688;2023-05-07T17:28:48;23.15;48.54
69464;DHT22;56665;41.106;16.688;2023-05-07T17:31:51;23.03;48.92
69464;DHT22;56665;41.106;16.688;2023-05-07T17:34:55;22.98;49.06
69464;DHT22;56665;41.106;16.688;2023-05-07T17:37:59;22.85;48.85
69464;DHT22;56665;41.106;16.688;2023-05-07T17:41:03;22.78;48.71
69464;DHT22;56665;41.106;16.688;2023-05-07T17:44:08;22.69;48.76
69464;DHT22;56665;41.106;16.688;2023-05-07T17:47:13;22.60;49.20
69464;DHT22;56665;41.106;16.688;2023-05-07T17:50:18;22.50;49.63
69464;DHT22;56665;41.106;16.688;2023-05-07T17:53:23;22.40;49.85
69464;DHT22;56665;41.106;16.688;2023-05-07T17:56:29;22.34;50.19
69464;DHT22;56665;41.106;16.688;2023-05-07T17:59:33;22.28;50.49
69464;DHT22;56665;41.106;16.688;2023-05-07T18:02:38;22.17;50.70
69464;DHT22;56665;41.106;16.688;2023-05-07T18:05:43;22.07;51.11
69464;DHT22;56665;41.106;16.688;2023-05-07T18:08:48;22.02;51.76
69464;DHT22;56665;41.106;16.688;2023-05-07T18:11:51;22.09;51.65
69464;DHT22;56665;41.106;16.688;2023-05-07T18:14:55;22.16;50.94
69464;DHT22;56665;41.106;16.688;2023-05-07T18:17:59;22.20;50.49
69464;DHT22;56665;41.106;16.688;2023-05-07T18:21:03;22.20;50.68
69464;DHT22;56665;41.106;16.688;2023-05-07T18:24:08;22.21;51.30
69464;DHT22;56665;41.106;16.688;2023-05-07T18:27:11;22.23;51.66
69464;DHT22;56665;41.106;16.688;2023-05-07T18:30:17;22.24;51.35
69464;DHT22;56665;41.106;16.688;2023-05-07T18:33:21;22.20;51.70
69464;DHT22;56665;41.106;16.688;2023-05-07T18:36:25;22.17;51.80
69464;DHT22;56665;41.106;16.688;2023-05-07T18:39:40;22.10;52.20
69464;DHT22;56665;41.106;16.688;2023-05-07T18:42:48;21.99;52.43
69464;DHT22;56665;41.106;16.688;2023-05-07T18:45:52;21.92;53.15
69464;DHT22;56665;41.106;16.688;2023-05-07T18:48:56;21.80;53.30
69464;DHT22;56665;41.106;16.688;2023-05-07T18:52:01;21.75;54.62
69464;DHT22;56665;41.106;16.688;2023-05-07T18:55:05;21.67;55.21
69464;DHT22;56665;41.106;16.688;2023-05-07T18:58:11;21.55;54.71
69464;DHT22;56665;41.106;16.688;2023-05-07T19:01:17;21.41;54.60
69464;DHT22;56665;41.106;16.688;2023-05-07T19:04:21;21.30;55.05
69464;DHT22;56665;41.106;16.688;2023-05-07T19:07:28;21.18;55.74
69464;DHT22;56665;41.106;16.688;2023-05-07T19:10:34;21.12;55.81
69464;DHT22;56665;41.106;16.688;2023-05-07T19:13:37;21.00;56.10
69464;DHT22;56665;41.106;16.688;2023-05-07T19:16:41;20.96;56.48
69464;DHT22;56665;41.106;16.688;2023-05-07T19:19:44;20.84;56.69
69464;DHT22;56665;41.106;16.688;2023-05-07T19:22:51;20.76;56.44
69464;DHT22;56665;41.106;16.688;2023-05-07T19:25:55;20.73;56.65